sensor_id;sensor_type;location;lat;lon;timestamp;pressure;altitude;pressure_sealevel;temperature;humidity
59831;BME280;45711;50.108;13.712;2023-05-20T18:08:14;97952.44;;;20.41;53.29
59831;BME280;45711;50.108;13.712;2023-05-20T18:10:44;97958.47;;;19.98;55.18
59831;BME280;45711;50.108;13.712;2023-05-20T18:13:17;97965.13;;;19.64;56.75
59831;BME280;45711;50.108;13.712;2023-05-20T18:15:43;97973.25;;;19.76;53.88
59831;BME280;45711;50.108;13.712;2023-05-20T18:18:08;97969.34;;;20.22;54.59
59831;BME280;45711;50.108;13.712;2023-05-20T18:20:37;97978.75;;;20.25;52.92
59831;BME280;45711;50.108;13.712;2023-05-20T18:23:03;97972.63;;;19.91;55.81
59831;BME280;45711;50.108;13.712;2023-05-20T18:25:44;97978.50;;;19.81;55.80
59831;BME280;45711;50.108;13.712;2023-05-20T18:28:10;97985.47;;;19.70;53.99
59831;BME280;45711;50.108;13.712;2023-05-20T18:30:40;97984.38;;;19.95;54.84
59831;BME280;45711;50.108;13.712;2023-05-20T18:33:07;97997.75;;;19.55;56.06
59831;BME280;45711;50.108;13.712;2023-05-20T18:35:37;97996.84;;;19.51;55.05
59831;BME280;45711;50.108;13.712;2023-05-20T18:38:03;97993.38;;;19.29;57.82
59831;BME280;45711;50.108;13.712;2023-05-20T18:40:33;97989.25;;;19.56;54.43
59831;BME280;45711;50.108;13.712;2023-05-20T18:43:06;98000.41;;;19.43;57.49
59831;BME280;45711;50.108;13.712;2023-05-20T18:45:35;98001.34;;;19.47;57.63
59831;BME280;45711;50.108;13.712;2023-05-20T18:48:01;98005.75;;;19.18;58.62
59831;BME280;45711;50.108;13.712;2023-05-20T18:50:30;98000.13;;;19.02;59.34
59831;BME280;45711;50.108;13.712;2023-05-20T18:52:57;98010.25;;;19.14;57.63
59831;BME280;45711;50.108;13.712;2023-05-20T18:55:28;98013.28;;;19.13;56.65
59831;BME280;45711;50.108;13.712;2023-05-20T18:57:55;98013.16;;;19.09;58.57
59831;BME280;45711;50.108;13.712;2023-05-20T19:00:21;98018.13;;;19.07;59.23
59831;BME280;45711;50.108;13.712;2023-05-20T19:02:50;98023.63;;;18.98;56.99
59831;BME280;45711;50.108;13.712;2023-05-20T19:05:18;98020.09;;;19.19;58.11
59831;BME280;45711;50.108;13.712;2023-05-20T19:07:44;98020.28;;;19.14;56.25
59831;BME280;45711;50.108;13.712;2023-05-20T19:10:10;98021.44;;;18.92;57.56
59831;BME280;45711;50.108;13.712;2023-05-20T19:12:47;98018.38;;;18.72;59.39
59831;BME280;45711;50.108;13.712;2023-05-20T19:15:17;98020.44;;;18.67;59.04
59831;BME280;45711;50.108;13.712;2023-05-20T19:17:43;98023.75;;;18.81;60.17
59831;BME280;45711;50.108;13.712;2023-05-20T19:20:13;98027.09;;;18.78;60.59
59831;BME280;45711;50.108;13.712;2023-05-20T19:22:42;98023.59;;;18.77;60.74
59831;BME280;45711;50.108;13.712;2023-05-20T19:25:08;98024.75;;;18.76;60.71
59831;BME280;45711;50.108;13.712;2023-05-20T19:27:37;98036.22;;;18.73;60.85
59831;BME280;45711;50.108;13.712;2023-05-20T19:30:03;98030.66;;;18.70;58.63
59831;BME280;45711;50.108;13.712;2023-05-20T19:32:33;98038.28;;;18.76;60.86
59831;BME280;45711;50.108;13.712;2023-05-20T19:34:59;98041.03;;;18.68;60.50
59831;BME280;45711;50.108;13.712;2023-05-20T19:37:25;98040.09;;;18.64;58.79
59831;BME280;45711;50.108;13.712;2023-05-20T19:39:50;98040.53;;;18.66;60.47
59831;BME280;45711;50.108;13.712;2023-05-20T19:42:16;98040.72;;;18.69;60.67
59831;BME280;45711;50.108;13.712;2023-05-20T19:44:52;98037.00;;;18.74;60.65
59831;BME280;45711;50.108;13.712;2023-05-20T19:47:17;98044.53;;;18.68;60.88
59831;BME280;45711;50.108;13.712;2023-05-20T19:49:45;98037.38;;;18.64;61.34
59831;BME280;45711;50.108;13.712;2023-05-20T19:52:11;98045.16;;;18.65;61.20
59831;BME280;45711;50.108;13.712;2023-05-20T19:54:36;98047.09;;;18.65;60.24
59831;BME280;45711;50.108;13.712;2023-05-20T19:57:02;98035.75;;;18.63;61.29
59831;BME280;45711;50.108;13.712;2023-05-20T19:59:28;98040.59;;;18.57;61.13
59831;BME280;45711;50.108;13.712;2023-05-20T20:01:54;98042.03;;;18.54;61.08
59831;BME280;45711;50.108;13.712;2023-05-20T20:04:20;98046.66;;;18.54;61.89
59831;BME280;45711;50.108;13.712;2023-05-20T20:06:49;98044.78;;;18.46;62.16
59831;BME280;45711;50.108;13.712;2023-05-20T20:09:14;98042.38;;;18.53;62.03
59831;BME280;45711;50.108;13.712;2023-05-20T20:11:40;98039.09;;;18.39;61.09
59831;BME280;45711;50.108;13.712;2023-05-20T20:14:07;98037.56;;;18.29;61.62
59831;BME280;45711;50.108;13.712;2023-05-20T20:16:33;98042.97;;;18.29;62.47
59831;BME280;45711;50.108;13.712;2023-05-20T20:18:59;98041.72;;;18.18;61.49
59831;BME280;45711;50.108;13.712;2023-05-20T20:21:25;98041.53;;;18.23;61.29
59831;BME280;45711;50.108;13.712;2023-05-20T20:24:03;98044.59;;;18.21;62.70
59831;BME280;45711;50.108;13.712;2023-05-20T20:26:29;98042.50;;;18.27;61.52
59831;BME280;45711;50.108;13.712;2023-05-20T20:28:55;98041.50;;;18.31;62.37
59831;BME280;45711;50.108;13.712;2023-05-20T20:31:20;98048.06;;;18.30;62.48
59831;BME280;45711;50.108;13.712;2023-05-20T20:33:46;98047.28;;;18.21;61.66
59831;BME280;45711;50.108;13.712;2023-05-20T20:36:12;98052.22;;;18.19;61.86
59831;BME280;45711;50.108;13.712;2023-05-20T20:38:38;98046.81;;;18.19;61.66
59831;BME280;45711;50.108;13.712;2023-05-20T20:41:05;98054.91;;;18.28;62.21
59831;BME280;45711;50.108;13.712;2023-05-20T20:43:33;98054.94;;;18.19;61.40
59831;BME280;45711;50.108;13.712;2023-05-20T20:46:02;98050.50;;;18.15;61.67
59831;BME280;45711;50.108;13.712;2023-05-20T20:48:30;98056.25;;;18.13;62.05
59831;BME280;45711;50.108;13.712;2023-05-20T20:50:59;98052.28;;;18.02;62.86
59831;BME280;45711;50.108;13.712;2023-05-20T20:53:45;98047.38;;;17.95;63.85
59831;BME280;45711;50.108;13.712;2023-05-20T20:56:16;98054.38;;;17.96;64.19
59831;BME280;45711;50.108;13.712;2023-05-20T20:58:41;98046.88;;;18.02;64.17
59831;BME280;45711;50.108;13.712;2023-05-20T21:01:09;98052.25;;;18.11;63.59
59831;BME280;45711;50.108;13.712;2023-05-20T21:03:46;98054.34;;;18.05;64.16
59831;BME280;45711;50.108;13.712;2023-05-20T21:06:12;98057.59;;;17.98;64.76
59831;BME280;45711;50.108;13.712;2023-05-20T21:08:38;98058.84;;;17.92;64.98
59831;BME280;45711;50.108;13.712;2023-05-20T21:11:06;98049.78;;;17.88;64.79
59831;BME280;45711;50.108;13.712;2023-05-20T21:13:33;98059.66;;;17.93;65.43
59831;BME280;45711;50.108;13.712;2023-05-20T21:16:01;98058.88;;;17.83;65.40
59831;BME280;45711;50.108;13.712;2023-05-20T21:18:27;98061.75;;;17.78;65.71
59831;BME280;45711;50.108;13.712;2023-05-20T21:20:53;98055.53;;;17.69;66.06
59831;BME280;45711;50.108;13.712;2023-05-20T21:23:20;98053.47;;;17.57;66.80
59831;BME280;45711;50.108;13.712;2023-05-20T21:25:46;98053.97;;;17.59;66.54
59831;BME280;45711;50.108;13.712;2023-05-20T21:28:13;98047.59;;;17.64;66.30
59831;BME280;45711;50.108;13.712;2023-05-20T21:30:43;98048.53;;;17.68;66.20
59831;BME280;45711;50.108;13.712;2023-05-20T21:33:12;98043.44;;;17.75;65.92
59831;BME280;45711;50.108;13.712;2023-05-20T21:35:40;98043.75;;;17.65;66.64
59831;BME280;45711;50.108;13.712;2023-05-20T21:38:05;98041.72;;;17.53;66.49
59831;BME280;45711;50.108;13.712;2023-05-20T21:40:31;98043.16;;;17.59;66.80
59831;BME280;45711;50.108;13.712;2023-05-20T21:43:01;98048.09;;;17.40;67.73
59831;BME280;45711;50.108;13.712;2023-05-20T21:45:27;98044.13;;;17.38;67.94
59831;BME280;45711;50.108;13.712;2023-05-20T21:48:02;98035.22;;;17.28;67.68
59831;BME280;45711;50.108;13.712;2023-05-20T21:50:31;98041.09;;;17.30;68.17
59831;BME280;45711;50.108;13.712;2023-05-20T21:52:57;98043.97;;;17.34;68.32
59831;BME280;45711;50.108;13.712;2023-05-20T21:55:27;98041.38;;;17.64;66.32
59831;BME280;45711;50.108;13.712;2023-05-20T21:57:53;98042.03;;;17.52;67.00
59831;BME280;45711;50.108;13.712;2023-05-20T22:00:18;98043.59;;;17.70;66.08
59831;BME280;45711;50.108;13.712;2023-05-20T22:02:45;98049.19;;;17.48;67.74
59831;BME280;45711;50.108;13.712;2023-05-20T22:05:12;98035.03;;;17.51;67.31
59831;BME280;45711;50.108;13.712;2023-05-20T22:07:40;98029.66;;;17.16;68.87
59831;BME280;45711;50.108;13.712;2023-05-20T22:10:08;98034.56;;;17.49;67.05
59831;BME280;45711;50.108;13.712;2023-05-20T22:12:34;98039.66;;;17.59;66.46
59831;BME280;45711;50.108;13.712;2023-05-20T22:15:02;98029.91;;;17.67;66.23
59831;BME280;45711;50.108;13.712;2023-05-20T22:17:35;98028.19;;;17.53;66.34
59831;BME280;45711;50.108;13.712;2023-05-20T22:20:03;98034.88;;;17.47;66.92
59831;BME280;45711;50.108;13.712;2023-05-20T22:22:39;98026.28;;;17.37;68.12
59831;BME280;45711;50.108;13.712;2023-05-20T22:25:05;98033.16;;;17.34;67.84
59831;BME280;45711;50.108;13.712;2023-05-20T22:27:41;98033.16;;;17.25;68.32
59831;BME280;45711;50.108;13.712;2023-05-20T22:30:08;98035.06;;;17.16;68.87
59831;BME280;45711;50.108;13.712;2023-05-20T22:32:34;98028.03;;;17.24;68.46
59831;BME280;45711;50.108;13.712;2023-05-20T22:35:00;98035.34;;;17.23;68.16
59831;BME280;45711;50.108;13.712;2023-05-20T22:37:25;98034.41;;;17.37;67.92
59831;BME280;45711;50.108;13.712;2023-05-20T22:39:54;98034.56;;;17.49;66.86
59831;BME280;45711;50.108;13.712;2023-05-20T22:42:29;98030.13;;;17.09;68.29
59831;BME280;45711;50.108;13.712;2023-05-20T22:44:54;98032.97;;;16.87;69.43
59831;BME280;45711;50.108;13.712;2023-05-20T22:47:20;98044.38;;;16.75;69.74
59831;BME280;45711;50.108;13.712;2023-05-20T22:49:46;98038.69;;;16.86;69.63
59831;BME280;45711;50.108;13.712;2023-05-20T22:52:11;98042.50;;;16.84;69.27
59831;BME280;45711;50.108;13.712;2023-05-20T22:54:37;98040.13;;;17.00;68.67
59831;BME280;45711;50.108;13.712;2023-05-20T22:57:04;98046.50;;;16.96;68.96
59831;BME280;45711;50.108;13.712;2023-05-20T22:59:30;98042.59;;;16.62;70.68
59831;BME280;45711;50.108;13.712;2023-05-20T23:01:56;98039.31;;;16.25;71.87
59831;BME280;45711;50.108;13.712;2023-05-20T23:04:28;98045.81;;;16.24;71.10
59831;BME280;45711;50.108;13.712;2023-05-20T23:06:54;98037.38;;;15.86;71.80
59831;BME280;45711;50.108;13.712;2023-05-20T23:09:20;98036.16;;;15.47;73.10
59831;BME280;45711;50.108;13.712;2023-05-20T23:11:45;98033.09;;;15.18;75.56
59831;BME280;45711;50.108;13.712;2023-05-20T23:14:14;98024.81;;;15.14;76.99
59831;BME280;45711;50.108;13.712;2023-05-20T23:16:39;98022.97;;;15.23;76.94
59831;BME280;45711;50.108;13.712;2023-05-20T23:19:06;98029.22;;;15.10;76.96
59831;BME280;45711;50.108;13.712;2023-05-20T23:21:32;98013.59;;;14.98;76.89
59831;BME280;45711;50.108;13.712;2023-05-20T23:23:57;98024.28;;;15.26;77.16
59831;BME280;45711;50.108;13.712;2023-05-20T23:26:23;98016.09;;;15.84;74.54
59831;BME280;45711;50.108;13.712;2023-05-20T23:28:53;98015.94;;;16.21;72.71
59831;BME280;45711;50.108;13.712;2023-05-20T23:31:22;98009.09;;;15.83;73.21
59831;BME280;45711;50.108;13.712;2023-05-20T23:33:48;98024.31;;;15.79;73.71
59831;BME280;45711;50.108;13.712;2023-05-20T23:36:13;98020.03;;;15.56;74.92
59831;BME280;45711;50.108;13.712;2023-05-20T23:38:42;98004.16;;;15.77;74.82
59831;BME280;45711;50.108;13.712;2023-05-20T23:41:08;98017.53;;;15.82;74.09
59831;BME280;45711;50.108;13.712;2023-05-20T23:43:33;98015.06;;;15.49;75.91
59831;BME280;45711;50.108;13.712;2023-05-20T23:45:59;98015.88;;;15.50;75.51
59831;BME280;45711;50.108;13.712;2023-05-20T23:48:26;98012.44;;;15.13;76.94
59831;BME280;45711;50.108;13.712;2023-05-20T23:50:51;98009.47;;;15.01;77.77
59831;BME280;45711;50.108;13.712;2023-05-20T23:53:17;98008.63;;;14.92;77.73
59831;BME280;45711;50.108;13.712;2023-05-20T23:55:43;98010.59;;;14.64;79.05
59831;BME280;45711;50.108;13.712;2023-05-20T23:58:09;97999.22;;;14.53;80.25
